sensor_id;sensor_type;location;lat;lon;timestamp;P1;durP1;ratioP1;P2;durP2;ratioP2
1378;SDS011;683;48.738;9.226;2023-08-06T00:02:12;14.90;;;13.40;;
1378;SDS011;683;48.738;9.226;2023-08-06T00:04:39;14.60;;;13.10;;
1378;SDS011;683;48.738;9.226;2023-08-06T00:07:06;15.63;;;14.03;;
1378;SDS011;683;48.738;9.226;2023-08-06T00:09:33;16.10;;;13.93;;
1378;SDS011;683;48.738;9.226;2023-08-06T00:12:02;14.23;;;12.83;;
1378;SDS011;683;48.738;9.226;2023-08-06T00:14:30;13.50;;;11.97;;
1378;SDS011;683;48.738;9.226;2023-08-06T00:17:00;13.67;;;12.27;;
1378;SDS011;683;48.738;9.226;2023-08-06T00:19:27;15.37;;;13.97;;
1378;SDS011;683;48.738;9.226;2023-08-06T00:21:54;15.93;;;14.33;;
1378;SDS011;683;48.738;9.226;2023-08-06T00:24:21;16.93;;;14.70;;
1378;SDS011;683;48.738;9.226;2023-08-06T00:26:48;15.10;;;13.60;;
1378;SDS011;683;48.738;9.226;2023-08-06T00:29:17;15.80;;;14.17;;
1378;SDS011;683;48.738;9.226;2023-08-06T00:31:44;14.90;;;13.40;;
1378;SDS011;683;48.738;9.226;2023-08-06T00:34:11;15.80;;;13.80;;
1378;SDS011;683;48.738;9.226;2023-08-06T00:36:38;14.20;;;12.80;;
1378;SDS011;683;48.738;9.226;2023-08-06T00:39:06;14.20;;;12.67;;
1378;SDS011;683;48.738;9.226;2023-08-06T00:41:33;13.50;;;12.10;;
1378;SDS011;683;48.738;9.226;2023-08-06T00:44:00;13.23;;;11.87;;
1378;SDS011;683;48.738;9.226;2023-08-06T00:46:28;14.00;;;12.50;;
1378;SDS011;683;48.738;9.226;2023-08-06T00:48:56;14.07;;;11.77;;
1378;SDS011;683;48.738;9.226;2023-08-06T00:51:24;17.10;;;15.30;;
1378;SDS011;683;48.738;9.226;2023-08-06T00:53:52;18.27;;;15.60;;
1378;SDS011;683;48.738;9.226;2023-08-06T00:56:19;14.33;;;12.17;;
1378;SDS011;683;48.738;9.226;2023-08-06T00:58:46;15.30;;;13.70;;
1378;SDS011;683;48.738;9.226;2023-08-06T01:01:14;13.40;;;12.03;;
1378;SDS011;683;48.738;9.226;2023-08-06T01:03:42;10.83;;;9.73;;
1378;SDS011;683;48.738;9.226;2023-08-06T01:06:09;10.30;;;9.30;;
1378;SDS011;683;48.738;9.226;2023-08-06T01:08:40;8.60;;;7.80;;
1378;SDS011;683;48.738;9.226;2023-08-06T01:11:17;8.53;;;7.67;;
1378;SDS011;683;48.738;9.226;2023-08-06T01:13:54;7.63;;;6.93;;
1378;SDS011;683;48.738;9.226;2023-08-06T01:16:26;7.90;;;7.10;;
1378;SDS011;683;48.738;9.226;2023-08-06T01:18:55;7.10;;;6.50;;
1378;SDS011;683;48.738;9.226;2023-08-06T01:21:25;7.73;;;6.10;;
1378;SDS011;683;48.738;9.226;2023-08-06T01:23:53;7.80;;;7.00;;
1378;SDS011;683;48.738;9.226;2023-08-06T01:26:22;8.93;;;7.00;;
1378;SDS011;683;48.738;9.226;2023-08-06T01:28:56;7.67;;;6.97;;
1378;SDS011;683;48.738;9.226;2023-08-06T01:31:31;8.07;;;7.37;;
1378;SDS011;683;48.738;9.226;2023-08-06T01:34:00;6.87;;;6.27;;
1378;SDS011;683;48.738;9.226;2023-08-06T01:36:30;7.77;;;7.07;;
1378;SDS011;683;48.738;9.226;2023-08-06T01:38:59;7.47;;;6.70;;
1378;SDS011;683;48.738;9.226;2023-08-06T01:41:26;7.00;;;6.30;;
1378;SDS011;683;48.738;9.226;2023-08-06T01:43:54;6.53;;;5.93;;
1378;SDS011;683;48.738;9.226;2023-08-06T01:46:21;7.07;;;6.30;;
1378;SDS011;683;48.738;9.226;2023-08-06T01:48:48;7.50;;;6.53;;
1378;SDS011;683;48.738;9.226;2023-08-06T01:51:15;8.43;;;7.30;;
1378;SDS011;683;48.738;9.226;2023-08-06T01:53:44;7.00;;;6.30;;
1378;SDS011;683;48.738;9.226;2023-08-06T01:56:11;6.07;;;5.50;;
1378;SDS011;683;48.738;9.226;2023-08-06T01:58:39;8.20;;;7.50;;
1378;SDS011;683;48.738;9.226;2023-08-06T02:01:06;6.30;;;5.80;;
1378;SDS011;683;48.738;9.226;2023-08-06T02:03:33;7.90;;;6.00;;
1378;SDS011;683;48.738;9.226;2023-08-06T02:06:00;5.80;;;5.30;;
1378;SDS011;683;48.738;9.226;2023-08-06T02:08:27;6.60;;;6.00;;
1378;SDS011;683;48.738;9.226;2023-08-06T02:10:56;5.53;;;5.03;;
1378;SDS011;683;48.738;9.226;2023-08-06T02:13:24;6.37;;;5.83;;
1378;SDS011;683;48.738;9.226;2023-08-06T02:15:51;6.40;;;5.80;;
1378;SDS011;683;48.738;9.226;2023-08-06T02:18:19;6.23;;;5.73;;
1378;SDS011;683;48.738;9.226;2023-08-06T02:20:54;5.57;;;5.07;;
1378;SDS011;683;48.738;9.226;2023-08-06T02:23:23;6.33;;;5.73;;
1378;SDS011;683;48.738;9.226;2023-08-06T02:25:57;5.73;;;5.30;;
1378;SDS011;683;48.738;9.226;2023-08-06T02:28:26;6.67;;;5.80;;
1378;SDS011;683;48.738;9.226;2023-08-06T02:30:53;6.47;;;5.33;;
1378;SDS011;683;48.738;9.226;2023-08-06T02:33:20;6.20;;;5.60;;
1378;SDS011;683;48.738;9.226;2023-08-06T02:35:48;5.60;;;5.10;;
1378;SDS011;683;48.738;9.226;2023-08-06T02:38:15;7.10;;;6.40;;
1378;SDS011;683;48.738;9.226;2023-08-06T02:40:43;6.30;;;5.80;;
1378;SDS011;683;48.738;9.226;2023-08-06T02:43:12;11.13;;;4.97;;
1378;SDS011;683;48.738;9.226;2023-08-06T02:45:40;5.20;;;4.70;;
1378;SDS011;683;48.738;9.226;2023-08-06T02:48:07;6.27;;;5.67;;
1378;SDS011;683;48.738;9.226;2023-08-06T02:50:38;5.47;;;5.00;;
1378;SDS011;683;48.738;9.226;2023-08-06T02:53:05;6.10;;;5.50;;
1378;SDS011;683;48.738;9.226;2023-08-06T02:55:33;7.53;;;5.07;;
1378;SDS011;683;48.738;9.226;2023-08-06T02:58:03;5.00;;;4.60;;
1378;SDS011;683;48.738;9.226;2023-08-06T03:00:35;5.17;;;4.67;;
1378;SDS011;683;48.738;9.226;2023-08-06T03:03:04;4.30;;;3.90;;
1378;SDS011;683;48.738;9.226;2023-08-06T03:05:39;4.83;;;4.20;;
1378;SDS011;683;48.738;9.226;2023-08-06T03:08:06;4.67;;;4.17;;
1378;SDS011;683;48.738;9.226;2023-08-06T03:10:35;4.93;;;4.53;;
1378;SDS011;683;48.738;9.226;2023-08-06T03:13:04;5.40;;;4.90;;
1378;SDS011;683;48.738;9.226;2023-08-06T03:15:31;5.97;;;4.60;;
1378;SDS011;683;48.738;9.226;2023-08-06T03:17:59;5.67;;;5.07;;
1378;SDS011;683;48.738;9.226;2023-08-06T03:20:27;5.00;;;4.50;;
1378;SDS011;683;48.738;9.226;2023-08-06T03:22:54;4.80;;;4.40;;
1378;SDS011;683;48.738;9.226;2023-08-06T03:25:21;5.17;;;4.60;;
1378;SDS011;683;48.738;9.226;2023-08-06T03:27:49;4.67;;;4.17;;
1378;SDS011;683;48.738;9.226;2023-08-06T03:30:18;4.17;;;3.70;;
1378;SDS011;683;48.738;9.226;2023-08-06T03:32:46;6.47;;;4.10;;
1378;SDS011;683;48.738;9.226;2023-08-06T03:35:16;10.13;;;4.13;;
1378;SDS011;683;48.738;9.226;2023-08-06T03:37:43;4.97;;;4.00;;
1378;SDS011;683;48.738;9.226;2023-08-06T03:40:11;5.10;;;3.97;;
1378;SDS011;683;48.738;9.226;2023-08-06T03:42:38;6.77;;;3.80;;
1378;SDS011;683;48.738;9.226;2023-08-06T03:45:05;4.53;;;3.97;;
1378;SDS011;683;48.738;9.226;2023-08-06T03:47:35;4.37;;;3.90;;
1378;SDS011;683;48.738;9.226;2023-08-06T03:50:03;5.53;;;4.40;;
1378;SDS011;683;48.738;9.226;2023-08-06T03:52:32;4.70;;;3.47;;
1378;SDS011;683;48.738;9.226;2023-08-06T03:55:00;4.70;;;4.30;;
1378;SDS011;683;48.738;9.226;2023-08-06T03:57:29;5.33;;;3.70;;
1378;SDS011;683;48.738;9.226;2023-08-06T03:59:56;4.77;;;3.77;;
1378;SDS011;683;48.738;9.226;2023-08-06T04:02:25;4.20;;;3.80;;
1378;SDS011;683;48.738;9.226;2023-08-06T04:04:53;3.50;;;2.97;;
1378;SDS011;683;48.738;9.226;2023-08-06T04:07:20;4.53;;;3.40;;
1378;SDS011;683;48.738;9.226;2023-08-06T04:09:53;3.57;;;3.20;;
1378;SDS011;683;48.738;9.226;2023-08-06T04:12:21;4.03;;;3.33;;
1378;SDS011;683;48.738;9.226;2023-08-06T04:14:48;2.97;;;2.67;;
1378;SDS011;683;48.738;9.226;2023-08-06T04:17:16;4.33;;;3.03;;
1378;SDS011;683;48.738;9.226;2023-08-06T04:19:46;3.07;;;2.70;;
1378;SDS011;683;48.738;9.226;2023-08-06T04:22:14;6.30;;;2.73;;
1378;SDS011;683;48.738;9.226;2023-08-06T04:24:41;7.80;;;3.53;;
1378;SDS011;683;48.738;9.226;2023-08-06T04:27:11;3.43;;;3.23;;
1378;SDS011;683;48.738;9.226;2023-08-06T04:29:39;4.37;;;2.93;;
1378;SDS011;683;48.738;9.226;2023-08-06T04:32:07;4.00;;;2.80;;
1378;SDS011;683;48.738;9.226;2023-08-06T04:34:37;4.47;;;2.77;;
1378;SDS011;683;48.738;9.226;2023-08-06T04:37:05;2.30;;;2.10;;
1378;SDS011;683;48.738;9.226;2023-08-06T04:39:32;3.83;;;2.70;;
1378;SDS011;683;48.738;9.226;2023-08-06T04:41:59;2.73;;;2.50;;
1378;SDS011;683;48.738;9.226;2023-08-06T04:44:28;2.87;;;2.53;;
1378;SDS011;683;48.738;9.226;2023-08-06T04:46:55;4.40;;;2.90;;
1378;SDS011;683;48.738;9.226;2023-08-06T04:49:22;3.23;;;2.33;;
1378;SDS011;683;48.738;9.226;2023-08-06T04:51:51;4.80;;;2.23;;
1378;SDS011;683;48.738;9.226;2023-08-06T04:54:18;3.00;;;2.50;;
1378;SDS011;683;48.738;9.226;2023-08-06T04:56:45;2.80;;;2.33;;
1378;SDS011;683;48.738;9.226;2023-08-06T04:59:12;3.73;;;2.70;;
1378;SDS011;683;48.738;9.226;2023-08-06T05:01:40;4.77;;;2.63;;
1378;SDS011;683;48.738;9.226;2023-08-06T05:04:08;3.47;;;2.50;;
1378;SDS011;683;48.738;9.226;2023-08-06T05:06:35;4.90;;;2.30;;
1378;SDS011;683;48.738;9.226;2023-08-06T05:09:03;2.27;;;2.10;;
1378;SDS011;683;48.738;9.226;2023-08-06T05:11:31;2.53;;;2.30;;
1378;SDS011;683;48.738;9.226;2023-08-06T05:13:58;2.60;;;2.40;;
1378;SDS011;683;48.738;9.226;2023-08-06T05:16:25;2.80;;;2.37;;
1378;SDS011;683;48.738;9.226;2023-08-06T05:18:54;2.40;;;1.90;;
1378;SDS011;683;48.738;9.226;2023-08-06T05:21:21;3.90;;;2.10;;
1378;SDS011;683;48.738;9.226;2023-08-06T05:24:07;4.90;;;1.87;;
1378;SDS011;683;48.738;9.226;2023-08-06T05:26:34;1.70;;;1.60;;
1378;SDS011;683;48.738;9.226;2023-08-06T05:29:01;2.70;;;2.20;;
1378;SDS011;683;48.738;9.226;2023-08-06T05:31:28;2.30;;;1.50;;
1378;SDS011;683;48.738;9.226;2023-08-06T05:33:57;3.47;;;1.90;;
1378;SDS011;683;48.738;9.226;2023-08-06T05:36:24;1.67;;;1.47;;
1378;SDS011;683;48.738;9.226;2023-08-06T05:38:51;2.20;;;1.97;;
1378;SDS011;683;48.738;9.226;2023-08-06T05:41:18;3.47;;;1.50;;
1378;SDS011;683;48.738;9.226;2023-08-06T05:43:45;4.87;;;1.77;;
1378;SDS011;683;48.738;9.226;2023-08-06T05:46:12;2.93;;;1.57;;
1378;SDS011;683;48.738;9.226;2023-08-06T05:48:39;2.10;;;1.07;;
1378;SDS011;683;48.738;9.226;2023-08-06T05:51:08;1.23;;;1.13;;
1378;SDS011;683;48.738;9.226;2023-08-06T05:53:38;4.00;;;1.50;;
1378;SDS011;683;48.738;9.226;2023-08-06T05:56:05;1.77;;;1.27;;
1378;SDS011;683;48.738;9.226;2023-08-06T05:58:32;2.67;;;1.30;;
1378;SDS011;683;48.738;9.226;2023-08-06T06:00:59;2.27;;;1.33;;
1378;SDS011;683;48.738;9.226;2023-08-06T06:03:26;2.63;;;1.03;;
1378;SDS011;683;48.738;9.226;2023-08-06T06:05:53;1.90;;;0.80;;
1378;SDS011;683;48.738;9.226;2023-08-06T06:08:22;2.17;;;1.13;;
1378;SDS011;683;48.738;9.226;2023-08-06T06:10:49;1.17;;;1.07;;
1378;SDS011;683;48.738;9.226;2023-08-06T06:13:16;2.83;;;1.00;;
1378;SDS011;683;48.738;9.226;2023-08-06T06:15:43;3.17;;;1.63;;
1378;SDS011;683;48.738;9.226;2023-08-06T06:18:10;1.00;;;0.90;;
1378;SDS011;683;48.738;9.226;2023-08-06T06:20:37;1.00;;;0.90;;
1378;SDS011;683;48.738;9.226;2023-08-06T06:23:04;3.33;;;0.90;;
1378;SDS011;683;48.738;9.226;2023-08-06T06:25:33;1.40;;;0.80;;
1378;SDS011;683;48.738;9.226;2023-08-06T06:28:00;2.13;;;1.30;;
1378;SDS011;683;48.738;9.226;2023-08-06T06:30:27;2.07;;;0.90;;
1378;SDS011;683;48.738;9.226;2023-08-06T06:32:54;3.30;;;0.93;;
1378;SDS011;683;48.738;9.226;2023-08-06T06:35:21;3.80;;;1.13;;
1378;SDS011;683;48.738;9.226;2023-08-06T06:37:49;1.93;;;0.90;;
1378;SDS011;683;48.738;9.226;2023-08-06T06:40:16;1.60;;;1.10;;
1378;SDS011;683;48.738;9.226;2023-08-06T06:42:44;1.60;;;1.33;;
1378;SDS011;683;48.738;9.226;2023-08-06T06:45:13;1.40;;;1.00;;
1378;SDS011;683;48.738;9.226;2023-08-06T06:47:40;0.80;;;0.80;;
1378;SDS011;683;48.738;9.226;2023-08-06T06:50:07;2.40;;;0.87;;
1378;SDS011;683;48.738;9.226;2023-08-06T06:52:35;2.03;;;0.97;;
1378;SDS011;683;48.738;9.226;2023-08-06T06:55:03;0.93;;;0.70;;
1378;SDS011;683;48.738;9.226;2023-08-06T06:57:31;1.90;;;0.60;;
1378;SDS011;683;48.738;9.226;2023-08-06T07:00:00;2.90;;;1.03;;
1378;SDS011;683;48.738;9.226;2023-08-06T07:02:27;0.83;;;0.80;;
1378;SDS011;683;48.738;9.226;2023-08-06T07:04:54;0.77;;;0.77;;
1378;SDS011;683;48.738;9.226;2023-08-06T07:07:21;2.13;;;1.43;;
1378;SDS011;683;48.738;9.226;2023-08-06T07:09:48;1.33;;;0.80;;
1378;SDS011;683;48.738;9.226;2023-08-06T07:12:15;3.60;;;1.50;;
1378;SDS011;683;48.738;9.226;2023-08-06T07:14:43;2.27;;;0.90;;
1378;SDS011;683;48.738;9.226;2023-08-06T07:17:11;1.53;;;0.90;;
1378;SDS011;683;48.738;9.226;2023-08-06T07:19:38;1.53;;;0.70;;
1378;SDS011;683;48.738;9.226;2023-08-06T07:22:05;1.87;;;0.83;;
1378;SDS011;683;48.738;9.226;2023-08-06T07:24:32;1.03;;;0.93;;
1378;SDS011;683;48.738;9.226;2023-08-06T07:27:00;1.30;;;1.20;;
1378;SDS011;683;48.738;9.226;2023-08-06T07:29:27;1.27;;;0.83;;
1378;SDS011;683;48.738;9.226;2023-08-06T07:31:54;0.50;;;0.50;;
1378;SDS011;683;48.738;9.226;2023-08-06T07:34:23;1.10;;;0.73;;
1378;SDS011;683;48.738;9.226;2023-08-06T07:36:50;1.50;;;0.60;;
1378;SDS011;683;48.738;9.226;2023-08-06T07:39:17;0.80;;;0.50;;
1378;SDS011;683;48.738;9.226;2023-08-06T07:41:44;1.33;;;0.70;;
1378;SDS011;683;48.738;9.226;2023-08-06T07:44:12;0.60;;;0.43;;
1378;SDS011;683;48.738;9.226;2023-08-06T07:46:39;0.50;;;0.50;;
1378;SDS011;683;48.738;9.226;2023-08-06T07:49:06;0.93;;;0.60;;
1378;SDS011;683;48.738;9.226;2023-08-06T07:51:35;1.10;;;0.60;;
1378;SDS011;683;48.738;9.226;2023-08-06T07:54:02;0.50;;;0.40;;
1378;SDS011;683;48.738;9.226;2023-08-06T07:56:29;0.77;;;0.50;;
1378;SDS011;683;48.738;9.226;2023-08-06T07:58:56;0.60;;;0.43;;
1378;SDS011;683;48.738;9.226;2023-08-06T08:01:23;0.50;;;0.50;;
1378;SDS011;683;48.738;9.226;2023-08-06T08:03:50;0.40;;;0.30;;
1378;SDS011;683;48.738;9.226;2023-08-06T08:06:18;0.50;;;0.50;;
1378;SDS011;683;48.738;9.226;2023-08-06T08:08:46;0.60;;;0.40;;
1378;SDS011;683;48.738;9.226;2023-08-06T08:11:13;0.53;;;0.53;;
1378;SDS011;683;48.738;9.226;2023-08-06T08:13:41;0.40;;;0.30;;
1378;SDS011;683;48.738;9.226;2023-08-06T08:16:08;0.43;;;0.37;;
1378;SDS011;683;48.738;9.226;2023-08-06T08:18:36;0.60;;;0.37;;
1378;SDS011;683;48.738;9.226;2023-08-06T08:21:04;0.67;;;0.30;;
1378;SDS011;683;48.738;9.226;2023-08-06T08:23:31;0.47;;;0.40;;
1378;SDS011;683;48.738;9.226;2023-08-06T08:26:00;0.70;;;0.50;;
1378;SDS011;683;48.738;9.226;2023-08-06T08:28:29;1.00;;;0.30;;
1378;SDS011;683;48.738;9.226;2023-08-06T08:30:57;0.40;;;0.30;;
1378;SDS011;683;48.738;9.226;2023-08-06T08:33:24;0.40;;;0.40;;
1378;SDS011;683;48.738;9.226;2023-08-06T08:35:51;0.40;;;0.40;;
1378;SDS011;683;48.738;9.226;2023-08-06T08:38:18;0.40;;;0.30;;
1378;SDS011;683;48.738;9.226;2023-08-06T08:40:46;0.40;;;0.40;;
1378;SDS011;683;48.738;9.226;2023-08-06T08:43:19;0.40;;;0.30;;
1378;SDS011;683;48.738;9.226;2023-08-06T08:48:17;0.60;;;0.40;;
1378;SDS011;683;48.738;9.226;2023-08-06T08:50:46;0.33;;;0.30;;
1378;SDS011;683;48.738;9.226;2023-08-06T08:53:18;0.40;;;0.30;;
1378;SDS011;683;48.738;9.226;2023-08-06T08:55:46;0.50;;;0.50;;
1378;SDS011;683;48.738;9.226;2023-08-06T08:58:14;0.30;;;0.30;;
1378;SDS011;683;48.738;9.226;2023-08-06T09:00:44;0.70;;;0.30;;
1378;SDS011;683;48.738;9.226;2023-08-06T09:03:12;0.60;;;0.30;;
1378;SDS011;683;48.738;9.226;2023-08-06T09:05:40;0.40;;;0.30;;
1378;SDS011;683;48.738;9.226;2023-08-06T09:08:11;0.40;;;0.30;;
1378;SDS011;683;48.738;9.226;2023-08-06T09:10:43;0.30;;;0.30;;
1378;SDS011;683;48.738;9.226;2023-08-06T09:13:12;0.30;;;0.30;;
1378;SDS011;683;48.738;9.226;2023-08-06T09:15:42;0.93;;;0.40;;
1378;SDS011;683;48.738;9.226;2023-08-06T09:18:10;0.60;;;0.60;;
1378;SDS011;683;48.738;9.226;2023-08-06T09:20:38;0.53;;;0.40;;
1378;SDS011;683;48.738;9.226;2023-08-06T09:23:09;0.43;;;0.30;;
1378;SDS011;683;48.738;9.226;2023-08-06T09:25:38;1.23;;;0.30;;
1378;SDS011;683;48.738;9.226;2023-08-06T09:28:06;0.40;;;0.37;;
1378;SDS011;683;48.738;9.226;2023-08-06T09:30:33;0.37;;;0.30;;
1378;SDS011;683;48.738;9.226;2023-08-06T09:33:05;0.90;;;0.33;;
1378;SDS011;683;48.738;9.226;2023-08-06T09:35:35;0.40;;;0.30;;
1378;SDS011;683;48.738;9.226;2023-08-06T09:38:09;0.50;;;0.40;;
1378;SDS011;683;48.738;9.226;2023-08-06T09:40:37;0.40;;;0.30;;
1378;SDS011;683;48.738;9.226;2023-08-06T09:43:05;0.50;;;0.30;;
1378;SDS011;683;48.738;9.226;2023-08-06T09:45:33;0.40;;;0.30;;
1378;SDS011;683;48.738;9.226;2023-08-06T09:48:02;0.40;;;0.30;;
1378;SDS011;683;48.738;9.226;2023-08-06T09:50:32;0.40;;;0.30;;
1378;SDS011;683;48.738;9.226;2023-08-06T09:53:01;1.43;;;0.40;;
1378;SDS011;683;48.738;9.226;2023-08-06T09:55:29;0.43;;;0.33;;
1378;SDS011;683;48.738;9.226;2023-08-06T09:57:56;0.77;;;0.40;;
1378;SDS011;683;48.738;9.226;2023-08-06T10:00:25;0.40;;;0.30;;
1378;SDS011;683;48.738;9.226;2023-08-06T10:02:53;0.50;;;0.30;;
1378;SDS011;683;48.738;9.226;2023-08-06T10:05:22;0.40;;;0.30;;
1378;SDS011;683;48.738;9.226;2023-08-06T10:07:50;0.40;;;0.30;;
1378;SDS011;683;48.738;9.226;2023-08-06T10:10:18;0.30;;;0.30;;
1378;SDS011;683;48.738;9.226;2023-08-06T10:12:46;0.40;;;0.30;;
1378;SDS011;683;48.738;9.226;2023-08-06T10:15:17;0.50;;;0.40;;
1378;SDS011;683;48.738;9.226;2023-08-06T10:17:50;0.63;;;0.53;;
1378;SDS011;683;48.738;9.226;2023-08-06T10:20:20;0.70;;;0.33;;
1378;SDS011;683;48.738;9.226;2023-08-06T10:22:59;0.93;;;0.40;;
1378;SDS011;683;48.738;9.226;2023-08-06T10:25:30;0.33;;;0.30;;
1378;SDS011;683;48.738;9.226;2023-08-06T10:27:59;1.23;;;0.40;;
1378;SDS011;683;48.738;9.226;2023-08-06T10:30:28;0.40;;;0.30;;
1378;SDS011;683;48.738;9.226;2023-08-06T10:32:57;0.40;;;0.30;;
1378;SDS011;683;48.738;9.226;2023-08-06T10:35:31;0.60;;;0.50;;
1378;SDS011;683;48.738;9.226;2023-08-06T10:38:05;0.40;;;0.40;;
1378;SDS011;683;48.738;9.226;2023-08-06T10:40:35;0.50;;;0.47;;
1378;SDS011;683;48.738;9.226;2023-08-06T10:43:04;0.40;;;0.40;;
1378;SDS011;683;48.738;9.226;2023-08-06T10:45:36;0.40;;;0.30;;
1378;SDS011;683;48.738;9.226;2023-08-06T10:48:04;0.40;;;0.30;;
1378;SDS011;683;48.738;9.226;2023-08-06T10:50:32;0.40;;;0.40;;
1378;SDS011;683;48.738;9.226;2023-08-06T10:53:03;0.67;;;0.40;;
1378;SDS011;683;48.738;9.226;2023-08-06T10:55:32;0.70;;;0.30;;
1378;SDS011;683;48.738;9.226;2023-08-06T10:57:59;0.90;;;0.60;;
1378;SDS011;683;48.738;9.226;2023-08-06T11:00:26;0.60;;;0.30;;
1378;SDS011;683;48.738;9.226;2023-08-06T11:02:53;0.50;;;0.50;;
1378;SDS011;683;48.738;9.226;2023-08-06T11:05:21;0.50;;;0.30;;
1378;SDS011;683;48.738;9.226;2023-08-06T11:07:52;1.23;;;0.83;;
1378;SDS011;683;48.738;9.226;2023-08-06T11:10:19;0.60;;;0.47;;
1378;SDS011;683;48.738;9.226;2023-08-06T11:12:46;0.30;;;0.30;;
1378;SDS011;683;48.738;9.226;2023-08-06T11:15:13;0.73;;;0.50;;
1378;SDS011;683;48.738;9.226;2023-08-06T11:17:40;0.50;;;0.40;;
1378;SDS011;683;48.738;9.226;2023-08-06T11:20:08;0.60;;;0.50;;
1378;SDS011;683;48.738;9.226;2023-08-06T11:22:37;0.90;;;0.57;;
1378;SDS011;683;48.738;9.226;2023-08-06T11:25:07;0.40;;;0.40;;
1378;SDS011;683;48.738;9.226;2023-08-06T11:27:34;1.83;;;0.50;;
1378;SDS011;683;48.738;9.226;2023-08-06T11:30:01;0.40;;;0.40;;
1378;SDS011;683;48.738;9.226;2023-08-06T11:32:29;0.50;;;0.50;;
1378;SDS011;683;48.738;9.226;2023-08-06T11:34:58;0.63;;;0.60;;
1378;SDS011;683;48.738;9.226;2023-08-06T11:37:25;0.60;;;0.60;;
1378;SDS011;683;48.738;9.226;2023-08-06T11:39:53;0.80;;;0.60;;
1378;SDS011;683;48.738;9.226;2023-08-06T11:42:22;1.10;;;0.90;;
1378;SDS011;683;48.738;9.226;2023-08-06T11:44:50;0.87;;;0.70;;
1378;SDS011;683;48.738;9.226;2023-08-06T11:47:17;1.03;;;0.80;;
1378;SDS011;683;48.738;9.226;2023-08-06T11:49:46;0.63;;;0.60;;
1378;SDS011;683;48.738;9.226;2023-08-06T11:52:15;0.93;;;0.83;;
1378;SDS011;683;48.738;9.226;2023-08-06T11:54:45;0.83;;;0.73;;
1378;SDS011;683;48.738;9.226;2023-08-06T11:57:13;0.93;;;0.80;;
1378;SDS011;683;48.738;9.226;2023-08-06T11:59:41;0.60;;;0.60;;
1378;SDS011;683;48.738;9.226;2023-08-06T12:02:09;4.20;;;0.80;;
1378;SDS011;683;48.738;9.226;2023-08-06T12:07:32;1.40;;;1.00;;
1378;SDS011;683;48.738;9.226;2023-08-06T12:10:03;0.90;;;0.90;;
1378;SDS011;683;48.738;9.226;2023-08-06T12:12:31;5.17;;;1.07;;
1378;SDS011;683;48.738;9.226;2023-08-06T12:14:59;1.23;;;1.13;;
1378;SDS011;683;48.738;9.226;2023-08-06T12:17:29;1.13;;;0.97;;
1378;SDS011;683;48.738;9.226;2023-08-06T12:19:56;0.70;;;0.70;;
1378;SDS011;683;48.738;9.226;2023-08-06T12:22:24;1.40;;;1.20;;
1378;SDS011;683;48.738;9.226;2023-08-06T12:24:51;0.87;;;0.80;;
1378;SDS011;683;48.738;9.226;2023-08-06T12:27:18;1.27;;;1.13;;
1378;SDS011;683;48.738;9.226;2023-08-06T12:29:46;1.23;;;1.10;;
1378;SDS011;683;48.738;9.226;2023-08-06T12:32:18;2.37;;;1.00;;
1378;SDS011;683;48.738;9.226;2023-08-06T12:34:45;0.90;;;0.90;;
1378;SDS011;683;48.738;9.226;2023-08-06T12:37:15;1.60;;;0.97;;
1378;SDS011;683;48.738;9.226;2023-08-06T12:39:42;1.20;;;1.10;;
1378;SDS011;683;48.738;9.226;2023-08-06T12:42:10;0.73;;;0.70;;
1378;SDS011;683;48.738;9.226;2023-08-06T12:44:37;2.13;;;0.80;;
1378;SDS011;683;48.738;9.226;2023-08-06T12:47:04;0.90;;;0.90;;
1378;SDS011;683;48.738;9.226;2023-08-06T12:49:34;1.80;;;1.30;;
1378;SDS011;683;48.738;9.226;2023-08-06T12:52:02;0.60;;;0.60;;
1378;SDS011;683;48.738;9.226;2023-08-06T12:54:31;1.17;;;0.77;;
1378;SDS011;683;48.738;9.226;2023-08-06T12:57:02;1.30;;;0.90;;
1378;SDS011;683;48.738;9.226;2023-08-06T12:59:29;1.10;;;0.80;;
1378;SDS011;683;48.738;9.226;2023-08-06T13:01:58;1.20;;;1.00;;
1378;SDS011;683;48.738;9.226;2023-08-06T13:04:25;1.13;;;0.70;;
1378;SDS011;683;48.738;9.226;2023-08-06T13:06:54;1.43;;;0.77;;
1378;SDS011;683;48.738;9.226;2023-08-06T13:09:22;0.90;;;0.90;;
1378;SDS011;683;48.738;9.226;2023-08-06T13:11:50;0.97;;;0.83;;
1378;SDS011;683;48.738;9.226;2023-08-06T13:14:17;2.37;;;1.10;;
1378;SDS011;683;48.738;9.226;2023-08-06T13:16:44;0.80;;;0.60;;
1378;SDS011;683;48.738;9.226;2023-08-06T13:19:11;1.10;;;1.00;;
1378;SDS011;683;48.738;9.226;2023-08-06T13:21:58;1.10;;;0.90;;
1378;SDS011;683;48.738;9.226;2023-08-06T13:24:28;1.27;;;0.93;;
1378;SDS011;683;48.738;9.226;2023-08-06T13:26:58;1.23;;;0.87;;
1378;SDS011;683;48.738;9.226;2023-08-06T13:29:25;5.03;;;1.10;;
1378;SDS011;683;48.738;9.226;2023-08-06T13:31:53;0.83;;;0.80;;
1378;SDS011;683;48.738;9.226;2023-08-06T13:34:20;0.63;;;0.63;;
1378;SDS011;683;48.738;9.226;2023-08-06T13:36:50;1.97;;;0.87;;
1378;SDS011;683;48.738;9.226;2023-08-06T13:39:19;0.97;;;0.87;;
1378;SDS011;683;48.738;9.226;2023-08-06T13:41:46;0.87;;;0.83;;
1378;SDS011;683;48.738;9.226;2023-08-06T13:44:13;2.80;;;0.90;;
1378;SDS011;683;48.738;9.226;2023-08-06T13:46:41;3.93;;;1.03;;
1378;SDS011;683;48.738;9.226;2023-08-06T13:49:08;0.90;;;0.70;;
1378;SDS011;683;48.738;9.226;2023-08-06T13:51:35;1.00;;;0.90;;
1378;SDS011;683;48.738;9.226;2023-08-06T13:54:03;0.70;;;0.70;;
1378;SDS011;683;48.738;9.226;2023-08-06T13:59:03;1.07;;;0.67;;
1378;SDS011;683;48.738;9.226;2023-08-06T14:01:33;0.50;;;0.40;;
1378;SDS011;683;48.738;9.226;2023-08-06T14:04:01;2.00;;;0.80;;
1378;SDS011;683;48.738;9.226;2023-08-06T14:06:29;0.70;;;0.70;;
1378;SDS011;683;48.738;9.226;2023-08-06T14:08:56;1.97;;;0.70;;
1378;SDS011;683;48.738;9.226;2023-08-06T14:11:26;0.97;;;0.70;;
1378;SDS011;683;48.738;9.226;2023-08-06T14:13:56;1.13;;;0.67;;
1378;SDS011;683;48.738;9.226;2023-08-06T14:16:23;0.93;;;0.70;;
1378;SDS011;683;48.738;9.226;2023-08-06T14:18:50;0.63;;;0.60;;
1378;SDS011;683;48.738;9.226;2023-08-06T14:21:17;1.23;;;1.00;;
1378;SDS011;683;48.738;9.226;2023-08-06T14:23:44;1.17;;;0.70;;
1378;SDS011;683;48.738;9.226;2023-08-06T14:26:11;1.83;;;1.10;;
1378;SDS011;683;48.738;9.226;2023-08-06T14:28:40;0.93;;;0.83;;
1378;SDS011;683;48.738;9.226;2023-08-06T14:31:10;1.37;;;0.70;;
1378;SDS011;683;48.738;9.226;2023-08-06T14:33:37;2.00;;;0.90;;
1378;SDS011;683;48.738;9.226;2023-08-06T14:36:06;1.33;;;0.90;;
1378;SDS011;683;48.738;9.226;2023-08-06T14:38:33;1.13;;;0.60;;
1378;SDS011;683;48.738;9.226;2023-08-06T14:41:01;0.77;;;0.67;;
1378;SDS011;683;48.738;9.226;2023-08-06T14:43:28;2.20;;;0.60;;
1378;SDS011;683;48.738;9.226;2023-08-06T14:45:55;0.70;;;0.67;;
1378;SDS011;683;48.738;9.226;2023-08-06T14:48:24;0.60;;;0.60;;
1378;SDS011;683;48.738;9.226;2023-08-06T14:50:51;0.73;;;0.70;;
1378;SDS011;683;48.738;9.226;2023-08-06T14:53:20;3.07;;;0.53;;
1378;SDS011;683;48.738;9.226;2023-08-06T14:55:50;1.07;;;0.80;;
1378;SDS011;683;48.738;9.226;2023-08-06T14:58:17;0.50;;;0.50;;
1378;SDS011;683;48.738;9.226;2023-08-06T15:00:45;0.67;;;0.60;;
1378;SDS011;683;48.738;9.226;2023-08-06T15:03:12;0.90;;;0.80;;
1378;SDS011;683;48.738;9.226;2023-08-06T15:05:44;1.20;;;0.70;;
1378;SDS011;683;48.738;9.226;2023-08-06T15:08:12;1.03;;;0.90;;
1378;SDS011;683;48.738;9.226;2023-08-06T15:10:40;2.23;;;0.90;;
1378;SDS011;683;48.738;9.226;2023-08-06T15:13:07;3.43;;;0.93;;
1378;SDS011;683;48.738;9.226;2023-08-06T15:15:34;0.90;;;0.90;;
1378;SDS011;683;48.738;9.226;2023-08-06T15:18:07;0.60;;;0.50;;
1378;SDS011;683;48.738;9.226;2023-08-06T15:20:34;0.80;;;0.70;;
1378;SDS011;683;48.738;9.226;2023-08-06T15:23:02;0.90;;;0.70;;
1378;SDS011;683;48.738;9.226;2023-08-06T15:25:29;1.20;;;1.10;;
1378;SDS011;683;48.738;9.226;2023-08-06T15:27:56;1.30;;;0.80;;
1378;SDS011;683;48.738;9.226;2023-08-06T15:30:24;0.90;;;0.60;;
1378;SDS011;683;48.738;9.226;2023-08-06T15:32:51;2.60;;;0.87;;
1378;SDS011;683;48.738;9.226;2023-08-06T15:35:18;0.73;;;0.70;;
1378;SDS011;683;48.738;9.226;2023-08-06T15:37:45;1.33;;;0.73;;
1378;SDS011;683;48.738;9.226;2023-08-06T15:40:14;0.67;;;0.63;;
1378;SDS011;683;48.738;9.226;2023-08-06T15:42:41;0.90;;;0.80;;